Time;durP1;ratioP1;P1;durP2;ratioP2;P2;SDS_P1;SDS_P2;PMS_P1;PMS_P2;Temp;Humidity;BMP_temperature;BMP_pressure;BME280_temperature;BME280_humidity;BME280_pressure;Samples;Min_cycle;Max_cycle;Signal;HPM_P1;HPM_P2
2023/12/27 00:00:04;;;;;;;10.68;2.30;;;0.30;99.90;;;;;;5135095;28;20038;-76
2023/12/27 00:02:30;;;;;;;1.65;1.55;;;0.20;99.90;;;;;;5116657;28;19996;-76
2023/12/27 00:04:57;;;;;;;2.40;1.70;;;0.20;99.90;;;;;;5118588;28;20012;-79
2023/12/27 00:07:23;;;;;;;3.13;1.58;;;0.00;99.90;;;;;;5118774;28;20034;-77
2023/12/27 00:09:49;;;;;;;4.68;2.00;;;0.00;99.90;;;;;;5115871;28;20052;-79
2023/12/27 00:12:20;;;;;;;5.57;1.65;;;-0.10;99.90;;;;;;5116596;28;20000;-75
2023/12/27 00:14:45;;;;;;;6.13;2.20;;;0.00;99.90;;;;;;5115256;28;20056;-76
2023/12/27 00:17:11;;;;;;;3.58;2.10;;;0.00;99.90;;;;;;5117026;28;20031;-76
2023/12/27 00:19:49;;;;;;;6.32;1.90;;;0.10;99.90;;;;;;5116772;28;20018;-74
2023/12/27 00:22:34;;;;;;;3.70;1.60;;;0.00;99.90;;;;;;5112937;28;20109;-77
2023/12/27 00:25:00;;;;;;;2.95;1.50;;;-0.10;99.90;;;;;;5108449;28;20020;-76
2023/12/27 00:27:26;;;;;;;5.68;2.60;;;-0.30;99.90;;;;;;5106574;28;20021;-77
2023/12/27 00:29:52;;;;;;;6.80;1.80;;;-0.30;99.90;;;;;;5106986;28;20077;-76
2023/12/27 00:32:18;;;;;;;3.25;1.75;;;-0.30;99.90;;;;;;5093144;28;20031;-79
2023/12/27 00:34:43;;;;;;;4.82;1.75;;;-0.30;99.90;;;;;;5098911;28;20568;-78
2023/12/27 00:37:12;;;;;;;7.22;1.90;;;-0.30;99.90;;;;;;5094288;28;20022;-81
2023/12/27 00:39:38;;;;;;;3.72;2.15;;;-0.20;99.90;;;;;;5095826;28;20056;-78
2023/12/27 00:42:04;;;;;;;2.40;1.70;;;-0.30;99.90;;;;;;5094982;28;20035;-81
2023/12/27 00:44:33;;;;;;;8.43;1.88;;;-0.60;99.90;;;;;;5094775;28;20476;-79
2023/12/27 00:46:59;;;;;;;7.05;2.60;;;-0.40;99.90;;;;;;5094758;28;20019;-79
2023/12/27 00:49:25;;;;;;;3.45;1.60;;;-0.60;99.90;;;;;;5093683;28;20036;-78
2023/12/27 00:51:51;;;;;;;4.40;1.55;;;-0.60;99.90;;;;;;5095087;28;20132;-80
2023/12/27 00:54:18;;;;;;;2.80;1.65;;;-0.70;99.90;;;;;;5097857;28;20012;-77
2023/12/27 00:56:46;;;;;;;3.72;1.70;;;-0.80;99.90;;;;;;5098849;28;20005;-77
2023/12/27 00:59:12;;;;;;;4.75;1.60;;;-0.80;99.90;;;;;;5098500;28;20036;-79
2023/12/27 01:01:43;;;;;;;2.72;1.60;;;-0.80;99.90;;;;;;5099105;28;20024;-76
2023/12/27 01:04:10;;;;;;;2.75;1.23;;;-0.90;99.90;;;;;;5119284;28;20022;-76
2023/12/27 01:06:38;;;;;;;2.47;1.63;;;-1.10;99.90;;;;;;5118661;28;20032;-78
2023/12/27 01:09:05;;;;;;;6.18;2.13;;;-1.10;99.90;;;;;;5125595;28;20058;-79
2023/12/27 01:11:34;;;;;;;3.35;1.88;;;-1.10;99.90;;;;;;5138938;28;20024;-81
2023/12/27 01:14:02;;;;;;;5.80;2.40;;;-1.10;99.90;;;;;;5119882;28;20103;-78
2023/12/27 01:16:28;;;;;;;7.18;1.70;;;-1.00;99.90;;;;;;5135781;28;20277;-77
2023/12/27 01:18:54;;;;;;;9.52;2.03;;;-1.00;99.90;;;;;;5135913;28;20027;-80
2023/12/27 01:21:22;;;;;;;2.03;1.70;;;-1.00;99.90;;;;;;5115545;28;20026;-77
2023/12/27 01:23:49;;;;;;;5.25;1.50;;;-1.20;99.90;;;;;;5133868;28;20028;-81
2023/12/27 01:26:15;;;;;;;9.23;3.15;;;-1.10;99.90;;;;;;5116695;28;20019;-79
2023/12/27 01:28:41;;;;;;;6.00;2.22;;;-1.20;99.90;;;;;;5135019;28;20024;-80
2023/12/27 01:31:12;;;;;;;16.60;2.50;;;-1.10;99.90;;;;;;5119165;28;20053;-79
2023/12/27 01:33:39;;;;;;;3.50;1.60;;;-1.20;99.90;;;;;;5136176;28;20012;-80
2023/12/27 01:36:09;;;;;;;6.20;1.88;;;-1.20;99.90;;;;;;5136349;28;20038;-82
2023/12/27 01:38:36;;;;;;;2.58;1.63;;;-1.20;99.90;;;;;;5117886;28;20047;-80
2023/12/27 01:41:03;;;;;;;6.43;1.80;;;-1.20;99.90;;;;;;5115292;28;20007;-77
2023/12/27 01:43:28;;;;;;;8.20;2.45;;;-1.20;99.90;;;;;;5113604;28;20620;-77
2023/12/27 01:45:58;;;;;;;5.32;1.67;;;-1.10;99.90;;;;;;5131429;28;20059;-76
2023/12/27 01:48:24;;;;;;;6.18;1.70;;;-1.10;99.90;;;;;;5096509;28;20035;-81
2023/12/27 01:50:53;;;;;;;3.35;2.33;;;-1.00;99.90;;;;;;5119590;28;20027;-81
2023/12/27 01:53:31;;;;;;;5.25;2.15;;;-1.00;99.90;;;;;;5102277;28;20024;-80
2023/12/27 01:55:58;;;;;;;9.52;3.50;;;-0.90;99.90;;;;;;5127544;28;20030;-77
2023/12/27 01:58:26;;;;;;;3.13;2.33;;;-1.00;99.90;;;;;;5133944;28;20011;-80
2023/12/27 02:00:56;;;;;;;3.33;2.05;;;-1.00;99.90;;;;;;5118779;28;20036;-81
2023/12/27 02:03:23;;;;;;;2.95;1.63;;;-1.10;99.90;;;;;;5116726;28;20019;-81
2023/12/27 02:05:51;;;;;;;7.85;2.38;;;-1.10;99.90;;;;;;5118510;28;20008;-82
2023/12/27 02:08:18;;;;;;;6.85;2.70;;;-1.10;99.90;;;;;;5119256;28;20008;-79
2023/12/27 02:10:54;;;;;;;4.90;1.63;;;-1.20;99.90;;;;;;5083498;28;20048;-79
2023/12/27 02:13:19;;;;;;;2.83;1.80;;;-1.10;99.90;;;;;;5119270;28;20075;-82
2023/12/27 02:15:46;;;;;;;4.78;1.55;;;-1.00;99.90;;;;;;5101624;28;20036;-80
2023/12/27 02:18:14;;;;;;;3.13;1.70;;;-0.90;99.90;;;;;;5101400;28;20020;-81
2023/12/27 02:20:40;;;;;;;5.57;2.00;;;-0.90;99.90;;;;;;5119165;28;20039;-79
2023/12/27 02:23:10;;;;;;;2.53;1.67;;;-1.10;99.90;;;;;;5119132;28;20020;-80
2023/12/27 02:25:51;;;;;;;3.03;1.58;;;-1.10;99.90;;;;;;5101590;28;20080;-81
2023/12/27 02:28:17;;;;;;;8.52;1.85;;;-1.00;99.90;;;;;;5101152;28;20020;-80
2023/12/27 02:30:45;;;;;;;7.22;1.48;;;-0.90;99.90;;;;;;5102706;28;20020;-82
2023/12/27 02:33:11;;;;;;;5.07;1.73;;;-0.80;99.90;;;;;;5119649;28;20024;-79
2023/12/27 02:35:37;;;;;;;5.43;1.92;;;-0.80;99.90;;;;;;5119893;28;20020;-77
2023/12/27 02:38:10;;;;;;;10.68;2.20;;;-0.70;99.90;;;;;;5102735;28;20012;-80
2023/12/27 02:40:39;;;;;;;2.45;1.73;;;-0.70;99.90;;;;;;5102433;28;20016;-79
2023/12/27 02:43:06;;;;;;;2.53;1.75;;;-0.80;99.90;;;;;;5119951;28;20008;-76
2023/12/27 02:45:31;;;;;;;2.85;2.58;;;-0.80;99.90;;;;;;5104795;22;20106;-79
2023/12/27 02:47:57;;;;;;;6.60;2.17;;;-0.80;99.90;;;;;;5098602;28;20036;-79
2023/12/27 02:50:31;;;;;;;1.50;1.40;;;-0.80;99.90;;;;;;5099705;28;20028;-82
2023/12/27 02:52:57;;;;;;;4.20;1.90;;;-0.80;99.90;;;;;;5099188;28;20029;-76
2023/12/27 02:55:27;;;;;;;3.95;1.90;;;-0.90;99.90;;;;;;5091123;28;20112;-75
2023/12/27 02:58:18;;;;;;;7.45;2.33;;;-0.90;99.90;;;;;;5097046;28;20016;-77
2023/12/27 03:01:09;;;;;;;4.32;1.63;;;-1.10;99.90;;;;;;5096050;28;20029;-76
2023/12/27 03:03:35;;;;;;;5.03;1.65;;;-0.90;99.90;;;;;;5095992;28;20056;-75
2023/12/27 03:06:21;;;;;;;1.90;1.65;;;-0.90;99.90;;;;;;5096798;28;20025;-75
2023/12/27 03:09:14;;;;;;;4.35;2.08;;;-0.90;99.90;;;;;;5094446;28;20020;-75
2023/12/27 03:12:10;;;;;;;3.63;1.80;;;-0.90;99.90;;;;;;5095858;28;20054;-74
2023/12/27 03:14:42;;;;;;;3.65;1.25;;;-1.00;99.90;;;;;;5095047;28;20032;-74
2023/12/27 03:17:08;;;;;;;3.72;2.28;;;-1.00;99.90;;;;;;5097159;28;20016;-75
2023/12/27 03:19:37;;;;;;;6.65;2.20;;;-1.10;99.90;;;;;;5097589;28;20060;-74
2023/12/27 03:22:28;;;;;;;9.00;2.33;;;-1.10;99.90;;;;;;5097289;28;20049;-74
2023/12/27 03:25:31;;;;;;;6.57;1.75;;;-1.00;99.90;;;;;;5096694;28;20012;-75
2023/12/27 03:28:34;;;;;;;4.85;1.85;;;-1.00;99.90;;;;;;5095497;28;20023;-76
2023/12/27 03:31:00;;;;;;;6.13;1.70;;;-0.70;99.90;;;;;;5096675;28;20050;-74
2023/12/27 03:33:25;;;;;;;2.33;1.92;;;-0.80;99.90;;;;;;5096790;28;20028;-73
2023/12/27 03:36:30;;;;;;;5.65;2.15;;;-0.90;99.90;;;;;;5096486;28;20004;-75
2023/12/27 03:38:59;;;;;;;4.65;1.77;;;-0.80;99.90;;;;;;5096753;28;20000;-74
2023/12/27 03:41:27;;;;;;;4.20;2.20;;;-0.70;99.90;;;;;;5097566;28;20028;-74
2023/12/27 03:43:58;;;;;;;2.22;2.03;;;-0.60;99.90;;;;;;5179254;22;20051;-73
2023/12/27 03:46:23;;;;;;;2.78;2.05;;;-0.50;99.90;;;;;;5083257;22;20072;-74
2023/12/27 03:48:58;;;;;;;10.90;2.60;;;-0.50;99.90;;;;;;5076798;28;20017;-74
2023/12/27 03:51:25;;;;;;;7.95;1.65;;;-0.70;99.90;;;;;;5071973;28;20021;-74
2023/12/27 03:53:50;;;;;;;6.93;1.90;;;-0.70;99.90;;;;;;5076090;28;20040;-76
2023/12/27 03:56:16;;;;;;;6.57;1.75;;;-0.80;99.90;;;;;;5076549;28;20025;-74
2023/12/27 03:58:43;;;;;;;2.85;1.88;;;-0.80;99.90;;;;;;5083898;22;20144;-74
2023/12/27 04:03:34;;;;;;;4.05;1.70;;;-0.90;99.90;;;;;;5168300;22;20654;-76
2023/12/27 04:05:59;;;;;;;5.40;1.60;;;-1.00;99.90;;;;;;5060519;28;20025;-75
2023/12/27 04:08:25;;;;;;;2.67;1.88;;;-1.00;99.90;;;;;;5060762;28;20032;-75
2023/12/27 04:10:51;;;;;;;3.30;2.30;;;-1.10;99.90;;;;;;5060566;28;20041;-76
2023/12/27 04:13:51;;;;;;;5.95;2.28;;;-1.10;99.90;;;;;;5073696;28;20013;-75
2023/12/27 04:16:20;;;;;;;6.03;1.98;;;-1.10;99.90;;;;;;5076063;28;20014;-75
2023/12/27 04:18:49;;;;;;;7.03;2.47;;;-1.10;99.90;;;;;;5074695;28;20021;-74
2023/12/27 04:21:29;;;;;;;4.50;2.95;;;-1.30;99.90;;;;;;5060334;28;20076;-75
2023/12/27 04:24:23;;;;;;;8.95;2.50;;;-1.30;99.90;;;;;;5076832;28;20033;-75
2023/12/27 04:26:50;;;;;;;6.57;1.55;;;-1.40;99.90;;;;;;5063124;28;20088;-76
2023/12/27 04:29:22;;;;;;;3.97;1.80;;;-1.30;99.90;;;;;;5079760;28;20033;-75
2023/12/27 04:31:51;;;;;;;7.38;2.03;;;-1.40;99.90;;;;;;5081223;28;20029;-75
2023/12/27 04:34:40;;;;;;;3.97;2.03;;;-1.40;99.90;;;;;;5063925;28;20058;-75
2023/12/27 04:37:29;;;;;;;5.13;1.80;;;-1.30;99.90;;;;;;5063506;28;20021;-75
2023/12/27 04:39:57;;;;;;;4.30;1.70;;;-1.20;99.90;;;;;;5064259;28;20087;-75
2023/12/27 04:43:10;;;;;;;4.82;1.98;;;-1.20;99.90;;;;;;5081028;28;20016;-75
2023/12/27 04:45:51;;;;;;;4.88;1.88;;;-1.20;99.90;;;;;;5064419;28;20085;-75
2023/12/27 04:48:19;;;;;;;6.57;2.08;;;-1.10;99.90;;;;;;5081111;28;20025;-75
2023/12/27 04:51:01;;;;;;;2.73;1.50;;;-1.20;99.90;;;;;;5080823;28;20013;-75
2023/12/27 04:53:32;;;;;;;3.03;2.08;;;-1.10;99.90;;;;;;5062126;28;20013;-77
2023/12/27 04:56:23;;;;;;;5.00;1.83;;;-1.20;99.90;;;;;;5080495;28;20021;-77
2023/12/27 04:59:18;;;;;;;4.32;2.00;;;-1.20;99.90;;;;;;5063198;28;20020;-75
2023/12/27 05:01:44;;;;;;;5.65;2.15;;;-1.20;99.90;;;;;;5062656;28;20021;-75
2023/12/27 05:04:15;;;;;;;3.88;2.65;;;-1.20;99.90;;;;;;5078612;28;20104;-75
2023/12/27 05:06:41;;;;;;;7.35;2.67;;;-1.10;99.90;;;;;;5060439;28;20013;-75
2023/12/27 05:09:06;;;;;;;3.35;2.30;;;-1.10;99.90;;;;;;5079212;28;20016;-75
2023/12/27 05:11:32;;;;;;;4.60;2.28;;;-1.10;99.90;;;;;;5061340;28;20016;-75
2023/12/27 05:13:58;;;;;;;9.82;2.50;;;-1.20;99.90;;;;;;5081059;28;20508;-76
2023/12/27 05:16:30;;;;;;;2.53;2.20;;;-1.10;99.90;;;;;;5063749;28;20021;-75
2023/12/27 05:18:56;;;;;;;3.65;2.28;;;-1.10;99.90;;;;;;5080750;28;20017;-75
2023/12/27 05:21:49;;;;;;;9.90;4.80;;;-1.10;99.90;;;;;;5080508;28;20091;-75
2023/12/27 05:24:47;;;;;;;7.65;3.38;;;-1.10;99.90;;;;;;5080496;28;20010;-75
2023/12/27 05:27:18;;;;;;;6.97;2.53;;;-1.20;99.90;;;;;;5062057;28;20044;-76
2023/12/27 05:32:28;;;;;;;4.85;1.88;;;-1.30;99.90;;;;;;5080015;28;20011;-75
2023/12/27 05:34:57;;;;;;;6.55;2.20;;;-1.40;99.90;;;;;;5062313;28;20036;-76
2023/12/27 05:37:52;;;;;;;5.20;2.53;;;-1.50;99.90;;;;;;5062802;28;20035;-75
2023/12/27 05:40:17;;;;;;;3.50;2.47;;;-1.50;99.90;;;;;;5045587;28;20128;-75
2023/12/27 05:42:43;;;;;;;10.77;2.55;;;-1.60;99.90;;;;;;5079931;28;20014;-75
2023/12/27 05:45:29;;;;;;;8.68;2.40;;;-1.50;99.90;;;;;;5077119;28;20071;-75
2023/12/27 05:47:55;;;;;;;6.70;2.80;;;-1.40;99.90;;;;;;5051366;28;20025;-74
2023/12/27 05:50:20;;;;;;;3.08;2.03;;;-1.40;99.90;;;;;;5076717;28;20568;-75
2023/12/27 05:53:15;;;;;;;5.65;2.45;;;-1.40;99.90;;;;;;5077810;28;20013;-75
2023/12/27 05:55:41;;;;;;;4.50;2.83;;;-1.40;99.90;;;;;;5060567;28;20021;-75
2023/12/27 05:58:07;;;;;;;3.67;2.10;;;-1.40;99.90;;;;;;5051591;23;20055;-75
2023/12/27 06:00:42;;;;;;;9.60;3.38;;;-1.30;99.90;;;;;;5040844;28;20051;-75
2023/12/27 06:03:08;;;;;;;4.18;2.50;;;-1.30;99.90;;;;;;5053883;28;20030;-75
2023/12/27 06:05:36;;;;;;;3.42;2.53;;;-1.30;99.90;;;;;;5056359;28;20006;-74
2023/12/27 06:08:37;;;;;;;4.20;2.20;;;-1.30;99.90;;;;;;5056483;28;20025;-75
2023/12/27 06:11:22;;;;;;;4.07;2.00;;;-1.40;99.90;;;;;;5257530;22;20092;-75
2023/12/27 06:13:49;;;;;;;7.90;2.95;;;-1.40;99.90;;;;;;5054517;28;20025;-77
2023/12/27 06:16:15;;;;;;;4.00;2.65;;;-1.50;99.90;;;;;;5055676;28;20414;-75
2023/12/27 06:18:54;;;;;;;10.02;3.15;;;-1.60;99.90;;;;;;5053957;28;20024;-74
2023/12/27 06:21:21;;;;;;;2.38;1.90;;;-1.60;99.90;;;;;;5055585;28;20030;-74
2023/12/27 06:24:22;;;;;;;8.05;2.42;;;-1.70;99.90;;;;;;5057243;28;20005;-75
2023/12/27 06:26:47;;;;;;;7.40;3.35;;;-1.70;99.90;;;;;;5057552;28;20092;-75
2023/12/27 06:29:39;;;;;;;3.30;1.98;;;-1.70;99.90;;;;;;5058005;28;20024;-75
2023/12/27 06:32:26;;;;;;;9.25;4.13;;;-1.50;99.90;;;;;;5056099;28;20061;-74
2023/12/27 06:35:03;;;;;;;7.78;2.83;;;-1.40;99.90;;;;;;5056859;28;20030;-75
2023/12/27 06:37:32;;;;;;;5.45;1.80;;;-1.40;99.90;;;;;;5056697;28;20017;-75
2023/12/27 06:40:21;;;;;;;4.85;3.00;;;-1.30;99.90;;;;;;5057715;28;20021;-77
2023/12/27 06:42:50;;;;;;;4.47;2.42;;;-1.30;99.90;;;;;;5058219;28;20022;-75
2023/12/27 06:45:26;;;;;;;4.28;2.15;;;-1.40;99.90;;;;;;5057417;28;20044;-76
2023/12/27 06:47:56;;;;;;;7.00;1.85;;;-1.40;99.90;;;;;;5056719;28;20009;-75
2023/12/27 06:50:28;;;;;;;3.78;1.60;;;-1.40;99.90;;;;;;5056821;28;20025;-75
2023/12/27 06:52:58;;;;;;;6.57;2.55;;;-1.40;99.90;;;;;;5056968;28;20100;-75
2023/12/27 06:56:01;;;;;;;4.78;1.80;;;-1.40;99.90;;;;;;5056824;28;20009;-75
2023/12/27 06:59:07;;;;;;;3.58;1.80;;;-1.30;99.90;;;;;;5056601;28;20025;-75
2023/12/27 07:01:33;;;;;;;8.43;2.15;;;-1.30;99.90;;;;;;5057574;28;20002;-76
2023/12/27 07:04:00;;;;;;;8.02;1.70;;;-1.30;99.90;;;;;;5057198;28;20056;-75
2023/12/27 07:06:54;;;;;;;3.42;1.75;;;-1.30;99.90;;;;;;5057584;28;20029;-75
2023/12/27 07:09:46;;;;;;;4.85;2.30;;;-1.30;99.90;;;;;;5056679;28;20040;-75
2023/12/27 07:12:48;;;;;;;3.40;2.10;;;-1.30;99.90;;;;;;5055493;28;20056;-75
2023/12/27 07:15:31;;;;;;;4.38;2.08;;;-1.30;99.90;;;;;;5056435;28;20009;-75
2023/12/27 07:17:57;;;;;;;5.47;2.13;;;-1.20;99.90;;;;;;5057093;28;20016;-76
2023/12/27 07:20:43;;;;;;;3.38;2.38;;;-1.10;99.90;;;;;;5057857;28;20006;-75
2023/12/27 07:23:25;;;;;;;8.35;2.25;;;-1.00;99.90;;;;;;5056323;28;20021;-75
2023/12/27 07:26:11;;;;;;;2.50;1.85;;;-0.90;99.90;;;;;;5055198;28;20034;-76
2023/12/27 07:28:36;;;;;;;6.57;2.58;;;-1.00;99.90;;;;;;5057874;28;20085;-75
2023/12/27 07:31:02;;;;;;;6.05;2.13;;;-1.00;99.90;;;;;;5057450;28;20005;-75
2023/12/27 07:33:27;;;;;;;3.78;2.25;;;-0.90;99.90;;;;;;5055519;28;20013;-76
2023/12/27 07:35:53;;;;;;;6.32;3.08;;;-0.90;99.90;;;;;;5057379;28;20013;-75
2023/12/27 07:38:29;;;;;;;2.85;2.30;;;-0.90;99.90;;;;;;5058113;28;20025;-75
2023/12/27 07:41:17;;;;;;;5.95;2.33;;;-0.90;99.90;;;;;;5057188;28;20105;-75
2023/12/27 07:43:43;;;;;;;4.07;2.13;;;-0.90;99.90;;;;;;5056890;28;20021;-72
2023/12/27 07:46:10;;;;;;;7.07;2.47;;;-0.90;99.90;;;;;;5056883;28;20048;-78
2023/12/27 07:48:36;;;;;;;6.47;2.28;;;-0.90;99.90;;;;;;5056371;28;20025;-75
2023/12/27 07:51:27;;;;;;;9.05;2.80;;;-0.90;99.90;;;;;;5056565;28;20018;-75
2023/12/27 07:53:58;;;;;;;10.25;2.72;;;-0.90;99.90;;;;;;5056818;28;20017;-75
2023/12/27 07:56:26;;;;;;;6.25;2.17;;;-0.70;99.90;;;;;;5057961;28;20088;-75
2023/12/27 07:59:09;;;;;;;3.42;2.80;;;-0.70;99.90;;;;;;5057882;28;20005;-75
2023/12/27 08:01:36;;;;;;;6.05;2.50;;;-0.70;99.90;;;;;;5055108;28;20026;-75
2023/12/27 08:04:18;;;;;;;3.10;2.35;;;-0.60;99.90;;;;;;5054792;28;20040;-75
2023/12/27 08:06:49;;;;;;;6.95;3.20;;;-0.80;99.90;;;;;;5057901;28;20009;-78
2023/12/27 08:09:18;;;;;;;3.30;2.60;;;-0.80;99.90;;;;;;5056217;28;20044;-75
2023/12/27 08:11:48;;;;;;;5.10;2.08;;;-0.80;99.90;;;;;;5052261;28;20065;-75
2023/12/27 08:14:20;;;;;;;4.45;2.25;;;-0.70;99.90;;;;;;5056450;28;20005;-75
2023/12/27 08:16:46;;;;;;;5.40;2.13;;;-0.70;99.90;;;;;;5049904;28;20045;-94
2023/12/27 08:19:11;;;;;;;8.35;3.63;;;-0.70;99.90;;;;;;5043689;28;20077;-77
2023/12/27 08:21:37;;;;;;;14.25;4.15;;;-0.70;99.90;;;;;;5052155;28;20056;-87
2023/12/27 08:24:03;;;;;;;6.30;2.70;;;-0.60;99.90;;;;;;5051520;28;20040;-85
2023/12/27 08:26:30;;;;;;;9.75;2.65;;;-0.50;99.90;;;;;;5051087;28;20136;-76
2023/12/27 08:28:55;;;;;;;4.32;2.42;;;-0.40;99.90;;;;;;5053904;28;20037;-76
2023/12/27 08:31:23;;;;;;;4.88;2.22;;;-0.30;99.90;;;;;;5054638;28;20014;-76
2023/12/27 08:33:50;;;;;;;5.07;2.60;;;-0.40;99.90;;;;;;5055355;28;20037;-75
2023/12/27 08:36:15;;;;;;;16.40;6.90;;;-0.40;99.90;;;;;;5046226;28;20031;-76
2023/12/27 08:39:01;;;;;;;8.43;5.15;;;-0.20;99.90;;;;;;5050785;28;20005;-75
2023/12/27 08:41:50;;;;;;;6.40;4.50;;;-0.10;99.90;;;;;;5054005;28;20033;-75
2023/12/27 08:44:19;;;;;;;;;;;0.00;99.90;;;;;;5053811;28;20017;-76
2023/12/27 08:46:55;;;;;;;23.83;10.80;;;0.40;99.90;;;;;;5054875;28;19909;-75
2023/12/27 08:49:44;;;;;;;23.13;10.00;;;0.30;99.90;;;;;;5053796;28;20048;-75
2023/12/27 08:52:14;;;;;;;13.98;6.80;;;0.50;99.90;;;;;;5054294;28;20026;-76
2023/12/27 08:55:14;;;;;;;6.18;3.80;;;0.50;99.90;;;;;;5054211;28;20014;-75
2023/12/27 08:58:48;;;;;;;15.43;7.72;;;0.70;99.90;;;;;;5052262;28;20496;-75
2023/12/27 09:11:50;;;;;;;7.90;4.80;;;1.00;99.90;;;;;;4943929;29;20098;-79
2023/12/27 09:33:03;;;;;;;8.80;4.53;;;1.60;99.90;;;;;;4839538;29;20430;-75
2023/12/27 09:35:35;;;;;;;6.03;3.58;;;1.70;99.90;;;;;;4872248;29;20032;-78
2023/12/27 09:41:25;;;;;;;8.13;3.22;;;2.00;99.90;;;;;;4946670;28;20031;-80
2023/12/27 09:43:59;;;;;;;7.90;3.65;;;2.10;99.90;;;;;;4922633;29;20444;-78
2023/12/27 09:46:28;;;;;;;5.72;3.60;;;2.20;99.90;;;;;;4976707;28;20050;-81
2023/12/27 09:48:54;;;;;;;8.73;3.30;;;2.20;99.90;;;;;;4995913;28;20034;-79
2023/12/27 09:51:24;;;;;;;5.40;3.47;;;2.20;99.90;;;;;;4992025;28;20521;-80
2023/12/27 09:53:51;;;;;;;6.60;3.42;;;2.30;99.90;;;;;;4993502;28;20045;-79
2023/12/27 09:56:18;;;;;;;5.38;3.22;;;2.40;99.90;;;;;;5001251;28;20014;-79
2023/12/27 09:58:47;;;;;;;7.10;3.40;;;2.40;99.90;;;;;;5013401;28;20030;-78
2023/12/27 10:01:14;;;;;;;4.35;3.35;;;2.50;99.90;;;;;;5008164;28;20073;-79
2023/12/27 10:03:43;;;;;;;6.05;3.03;;;2.60;99.90;;;;;;5015103;28;20022;-77
2023/12/27 10:06:44;;;;;;;6.82;3.40;;;2.70;99.90;;;;;;5000072;28;20030;-78
2023/12/27 10:09:10;;;;;;;9.38;3.65;;;2.70;99.90;;;;;;4993592;28;20038;-79
2023/12/27 10:11:40;;;;;;;14.55;4.18;;;2.90;99.90;;;;;;5011612;28;20470;-77
2023/12/27 10:14:08;;;;;;;5.13;3.08;;;3.00;99.90;;;;;;5016105;28;20165;-78
2023/12/27 10:16:35;;;;;;;12.07;6.10;;;3.00;99.90;;;;;;5022938;28;20133;-81
2023/12/27 10:19:04;;;;;;;9.98;5.60;;;3.10;99.90;;;;;;5018342;28;20013;-77
2023/12/27 10:21:39;;;;;;;4.97;3.60;;;3.30;99.90;;;;;;5023120;28;20036;-77
2023/12/27 10:24:05;;;;;;;11.00;6.50;;;3.40;99.90;;;;;;5032137;28;20273;-79
2023/12/27 10:26:31;;;;;;;8.90;4.35;;;3.50;99.90;;;;;;5022530;28;20021;-77
2023/12/27 10:28:56;;;;;;;7.55;3.30;;;3.70;99.90;;;;;;5005548;28;20037;-77
2023/12/27 10:31:24;;;;;;;7.80;3.78;;;3.80;99.90;;;;;;5001834;28;20026;-80
2023/12/27 10:33:51;;;;;;;6.15;3.92;;;4.00;99.90;;;;;;5002597;28;20394;-78
2023/12/27 10:36:17;;;;;;;6.70;3.42;;;4.10;99.90;;;;;;5003008;28;20018;-79
2023/12/27 10:38:45;;;;;;;3.75;3.22;;;4.30;99.90;;;;;;5005038;28;20025;-78
2023/12/27 10:41:11;;;;;;;5.82;2.97;;;4.40;99.90;;;;;;5023539;28;20329;-82
2023/12/27 10:43:52;;;;;;;7.55;3.40;;;4.50;99.90;;;;;;5016392;28;20030;-78
2023/12/27 10:46:29;;;;;;;5.93;3.00;;;4.60;99.90;;;;;;5025431;28;20021;-78
2023/12/27 11:09:41;;;;;;;5.50;4.40;;;5.90;99.90;;;;;;4878232;29;20048;-79
2023/12/27 11:44:02;;;;;;;;;;;;;;;;;;;;;
2023/12/27 12:43:48;;;;;;;9.77;4.95;;;10.00;99.90;;;;;;4772119;30;20422;-78
2023/12/27 13:26:06;;;;;;;6.55;4.28;;;10.40;99.20;;;;;;4926213;29;20050;-80
2023/12/27 14:21:01;;;;;;;;;;;;;;;;;;;;;
2023/12/27 14:57:21;;;;;;;;;;;;;;;;;;;;;
2023/12/27 15:04:27;;;;;;;;;;;;;;;;;;;;;
2023/12/27 15:34:27;;;;;;;11.75;4.18;;;5.60;99.90;;;;;;4854549;29;20078;-81
2023/12/27 15:36:52;;;;;;;6.03;4.10;;;5.40;99.90;;;;;;4895823;29;20042;-82
2023/12/27 15:39:19;;;;;;;7.50;4.57;;;5.40;99.90;;;;;;4944179;29;20063;-82
2023/12/27 15:41:44;;;;;;;5.70;4.55;;;5.20;99.90;;;;;;5043119;28;20043;-77
2023/12/27 15:44:10;;;;;;;8.00;4.82;;;5.10;99.90;;;;;;5063639;28;20021;-79
2023/12/27 15:46:36;;;;;;;5.68;4.47;;;5.00;99.90;;;;;;5066743;28;20021;-80
2023/12/27 15:49:02;;;;;;;11.05;5.82;;;4.70;99.90;;;;;;5071273;28;20051;-79
2023/12/27 15:51:32;;;;;;;10.85;5.05;;;4.50;99.90;;;;;;5070937;28;20013;-76
2023/12/27 15:53:59;;;;;;;6.85;4.40;;;4.30;99.90;;;;;;5046133;28;20044;-77
2023/12/27 15:56:30;;;;;;;6.68;4.60;;;4.10;99.90;;;;;;5061654;28;20036;-79
2023/12/27 15:58:58;;;;;;;6.93;4.80;;;3.80;99.90;;;;;;5061962;28;20025;-81
2023/12/27 16:01:42;;;;;;;6.90;4.88;;;3.70;99.90;;;;;;5069001;28;20021;-79
2023/12/27 16:07:32;;;;;;;8.77;5.68;;;3.50;99.90;;;;;;4989221;28;20038;-81
2023/12/27 16:09:58;;;;;;;7.97;5.35;;;3.50;99.90;;;;;;5039123;28;20033;-81
2023/12/27 16:12:25;;;;;;;11.55;6.03;;;3.50;99.90;;;;;;5057687;28;20484;-79
2023/12/27 16:18:01;;;;;;;10.15;5.43;;;3.40;99.90;;;;;;5022073;28;20035;-82
2023/12/27 16:37:53;;;;;;;8.68;5.35;;;2.30;99.90;;;;;;4871230;29;20063;-80
2023/12/27 16:40:18;;;;;;;10.15;5.47;;;2.20;99.90;;;;;;4936177;28;20348;-82
2023/12/27 16:42:50;;;;;;;11.13;5.95;;;2.30;99.90;;;;;;5024820;28;20034;-80
2023/12/27 16:59:40;;;;;;;12.75;6.85;;;1.60;99.90;;;;;;4890737;29;20020;-81
2023/12/27 17:02:05;;;;;;;23.15;11.38;;;1.40;99.90;;;;;;4966424;28;20047;-81
2023/12/27 17:04:31;;;;;;;30.27;12.63;;;1.40;99.90;;;;;;4968126;28;20027;-79
2023/12/27 17:06:57;;;;;;;62.38;25.00;;;1.50;99.90;;;;;;5006967;28;20239;-82
2023/12/27 17:09:24;;;;;;;28.88;13.48;;;1.50;99.90;;;;;;5006212;28;20130;-79
2023/12/27 17:11:50;;;;;;;60.22;24.13;;;1.50;99.90;;;;;;5016822;28;20034;-78
2023/12/27 17:14:15;;;;;;;14.57;6.95;;;1.40;99.90;;;;;;5005552;28;20025;-79
2023/12/27 17:16:41;;;;;;;10.43;6.85;;;1.50;99.90;;;;;;5004885;28;20026;-82
2023/12/27 17:19:07;;;;;;;17.92;8.13;;;1.60;99.90;;;;;;5005723;28;20138;-80
2023/12/27 17:21:33;;;;;;;12.10;6.18;;;1.80;99.90;;;;;;5003209;28;20027;-81
2023/12/27 17:24:00;;;;;;;38.03;9.88;;;1.30;99.90;;;;;;5018610;28;20053;-83
2023/12/27 17:26:26;;;;;;;13.65;6.22;;;1.20;99.90;;;;;;5030350;28;20028;-79
2023/12/27 17:28:51;;;;;;;15.32;8.82;;;1.10;99.90;;;;;;5051219;28;20025;-81
2023/12/27 17:31:17;;;;;;;15.95;8.85;;;1.60;99.90;;;;;;5029859;28;20022;-82
2023/12/27 17:34:03;;;;;;;16.73;9.55;;;1.20;99.90;;;;;;5044421;28;20044;-79
2023/12/27 17:36:29;;;;;;;17.77;8.70;;;1.10;99.90;;;;;;5048183;28;20025;-80
2023/12/27 17:38:55;;;;;;;13.90;7.78;;;1.40;99.90;;;;;;5031106;28;20021;-78
2023/12/27 17:41:21;;;;;;;13.10;5.35;;;1.10;99.90;;;;;;5044780;28;20072;-79
2023/12/27 17:43:47;;;;;;;14.77;6.38;;;1.00;99.90;;;;;;5049847;28;20044;-86
2023/12/27 17:46:13;;;;;;;11.90;6.53;;;1.00;99.90;;;;;;5057508;28;20112;-81
2023/12/27 17:48:43;;;;;;;9.30;6.90;;;1.00;99.90;;;;;;5057943;28;20032;-80
2023/12/27 17:51:10;;;;;;;12.93;7.55;;;1.20;99.90;;;;;;5063108;28;20352;-80
2023/12/27 17:53:36;;;;;;;12.30;7.78;;;1.10;99.90;;;;;;5067750;28;20009;-81
2023/12/27 17:56:02;;;;;;;11.98;7.68;;;1.10;99.90;;;;;;5070355;28;20056;-79
2023/12/27 17:58:28;;;;;;;16.95;8.68;;;1.00;99.90;;;;;;5053807;28;20024;-81
2023/12/27 18:00:54;;;;;;;15.48;7.07;;;1.00;99.90;;;;;;5047205;28;20017;-87
2023/12/27 18:03:43;;;;;;;14.27;7.20;;;1.00;99.90;;;;;;5073583;28;20103;-80
2023/12/27 18:06:10;;;;;;;16.23;9.88;;;1.00;99.90;;;;;;5069767;28;20021;-78
2023/12/27 18:08:37;;;;;;;17.10;11.02;;;1.00;99.90;;;;;;5030167;28;20268;-79
2023/12/27 18:11:03;;;;;;;11.45;8.15;;;0.80;99.90;;;;;;5046046;28;20387;-80
2023/12/27 18:13:33;;;;;;;15.00;7.97;;;0.80;99.90;;;;;;5044135;28;20141;-79
2023/12/27 18:16:03;;;;;;;15.38;8.23;;;0.70;99.90;;;;;;5051347;28;20059;-83
2023/12/27 18:18:29;;;;;;;13.45;8.63;;;0.70;99.90;;;;;;5015830;28;20025;-81
2023/12/27 18:20:54;;;;;;;12.32;7.80;;;0.60;99.90;;;;;;5024264;28;20025;-78
2023/12/27 18:23:20;;;;;;;14.05;7.47;;;0.40;99.90;;;;;;5041845;28;20053;-79
2023/12/27 18:25:46;;;;;;;13.45;7.72;;;0.40;99.90;;;;;;5053623;28;20021;-81
2023/12/27 18:28:12;;;;;;;12.90;7.03;;;0.50;99.90;;;;;;5040712;28;20029;-80
2023/12/27 18:30:40;;;;;;;13.07;7.35;;;1.00;99.90;;;;;;5030197;28;20137;-79
2023/12/27 18:33:09;;;;;;;13.73;6.55;;;0.60;99.90;;;;;;5030023;28;20002;-82
2023/12/27 18:35:35;;;;;;;;;;;0.50;99.90;;;;;;5049504;28;20029;-80
2023/12/27 18:38:00;;;;;;;10.90;6.45;;;0.40;99.90;;;;;;5042022;28;19905;-78
2023/12/27 18:40:26;;;;;;;13.88;7.13;;;0.30;99.90;;;;;;5062153;28;20031;-78
2023/12/27 18:42:53;;;;;;;21.55;9.65;;;-0.10;99.90;;;;;;5063165;28;20021;-78
2023/12/27 18:45:19;;;;;;;15.57;8.65;;;0.10;99.90;;;;;;5076408;28;20012;-79
2023/12/27 18:47:46;;;;;;;17.08;9.02;;;0.10;99.90;;;;;;5071710;28;20031;-80
2023/12/27 18:50:14;;;;;;;11.43;6.35;;;0.10;99.90;;;;;;5063749;28;20029;-78
2023/12/27 18:52:43;;;;;;;15.30;7.50;;;0.00;99.90;;;;;;5070124;28;20025;-82
2023/12/27 18:55:11;;;;;;;14.07;7.15;;;0.00;99.90;;;;;;5044970;28;20005;-79
2023/12/27 18:57:46;;;;;;;10.90;7.03;;;0.00;99.90;;;;;;5058446;28;20029;-76
2023/12/27 19:00:15;;;;;;;17.38;8.40;;;0.00;99.90;;;;;;5024979;28;20017;-82